sensor_id;sensor_type;location;lat;lon;timestamp;temperature;humidity
15115;DHT22;7658;51.456;7.622;2023-03-23T00:01:05;11.60;99.90
15115;DHT22;7658;51.456;7.622;2023-03-23T00:03:31;11.60;99.90
15115;DHT22;7658;51.456;7.622;2023-03-23T00:06:00;11.60;99.90
15115;DHT22;7658;51.456;7.622;2023-03-23T00:08:32;11.60;99.90
15115;DHT22;7658;51.456;7.622;2023-03-23T00:10:59;11.50;99.90
15115;DHT22;7658;51.456;7.622;2023-03-23T00:13:27;11.50;99.90
15115;DHT22;7658;51.456;7.622;2023-03-23T00:15:53;11.40;99.90
15115;DHT22;7658;51.456;7.622;2023-03-23T00:18:20;11.40;99.90
15115;DHT22;7658;51.456;7.622;2023-03-23T00:20:54;11.40;99.90
15115;DHT22;7658;51.456;7.622;2023-03-23T00:23:24;11.30;99.90
15115;DHT22;7658;51.456;7.622;2023-03-23T00:25:55;11.30;99.90
15115;DHT22;7658;51.456;7.622;2023-03-23T00:28:25;11.30;99.90
15115;DHT22;7658;51.456;7.622;2023-03-23T00:31:03;11.30;99.90
15115;DHT22;7658;51.456;7.622;2023-03-23T00:33:34;11.20;99.90
15115;DHT22;7658;51.456;7.622;2023-03-23T00:36:04;11.20;99.90
15115;DHT22;7658;51.456;7.622;2023-03-23T00:38:31;11.20;99.90
15115;DHT22;7658;51.456;7.622;2023-03-23T00:40:56;11.20;99.90
15115;DHT22;7658;51.456;7.622;2023-03-23T00:43:23;11.20;99.90
15115;DHT22;7658;51.456;7.622;2023-03-23T00:45:57;11.20;99.90
15115;DHT22;7658;51.456;7.622;2023-03-23T00:48:27;11.30;99.90
15115;DHT22;7658;51.456;7.622;2023-03-23T00:50:55;11.30;99.90
15115;DHT22;7658;51.456;7.622;2023-03-23T00:53:22;11.30;99.90
15115;DHT22;7658;51.456;7.622;2023-03-23T00:55:48;11.30;99.90
15115;DHT22;7658;51.456;7.622;2023-03-23T00:58:15;11.30;99.90
15115;DHT22;7658;51.456;7.622;2023-03-23T01:00:41;11.20;99.90
15115;DHT22;7658;51.456;7.622;2023-03-23T01:03:08;11.20;99.90
15115;DHT22;7658;51.456;7.622;2023-03-23T01:05:38;11.30;99.90
15115;DHT22;7658;51.456;7.622;2023-03-23T01:08:05;11.30;99.90
15115;DHT22;7658;51.456;7.622;2023-03-23T01:10:32;11.30;99.90
15115;DHT22;7658;51.456;7.622;2023-03-23T01:12:59;11.30;99.90
15115;DHT22;7658;51.456;7.622;2023-03-23T01:15:29;11.30;99.90
15115;DHT22;7658;51.456;7.622;2023-03-23T01:17:55;11.40;99.90
15115;DHT22;7658;51.456;7.622;2023-03-23T01:20:21;11.40;99.90
15115;DHT22;7658;51.456;7.622;2023-03-23T01:22:47;11.50;99.90
15115;DHT22;7658;51.456;7.622;2023-03-23T01:25:13;11.50;99.90
15115;DHT22;7658;51.456;7.622;2023-03-23T01:27:40;11.60;99.90
15115;DHT22;7658;51.456;7.622;2023-03-23T01:30:07;11.60;99.90
15115;DHT22;7658;51.456;7.622;2023-03-23T01:32:34;11.60;99.90
15115;DHT22;7658;51.456;7.622;2023-03-23T01:34:59;11.60;99.90
15115;DHT22;7658;51.456;7.622;2023-03-23T01:37:25;11.60;99.90
15115;DHT22;7658;51.456;7.622;2023-03-23T01:39:58;11.60;99.90
15115;DHT22;7658;51.456;7.622;2023-03-23T01:42:33;11.60;99.90
15115;DHT22;7658;51.456;7.622;2023-03-23T01:45:34;11.60;99.90
15115;DHT22;7658;51.456;7.622;2023-03-23T01:50:51;11.50;99.90
15115;DHT22;7658;51.456;7.622;2023-03-23T01:53:19;11.40;99.90
15115;DHT22;7658;51.456;7.622;2023-03-23T01:55:48;11.40;99.90
15115;DHT22;7658;51.456;7.622;2023-03-23T01:58:19;11.30;99.90
15115;DHT22;7658;51.456;7.622;2023-03-23T02:00:46;11.10;99.90
15115;DHT22;7658;51.456;7.622;2023-03-23T02:03:14;11.00;99.90
15115;DHT22;7658;51.456;7.622;2023-03-23T02:05:42;10.90;99.90
15115;DHT22;7658;51.456;7.622;2023-03-23T02:08:09;10.80;99.90
15115;DHT22;7658;51.456;7.622;2023-03-23T02:10:37;10.80;99.90
15115;DHT22;7658;51.456;7.622;2023-03-23T02:13:05;10.70;99.90
15115;DHT22;7658;51.456;7.622;2023-03-23T02:18:08;10.70;99.90
15115;DHT22;7658;51.456;7.622;2023-03-23T02:34:28;10.40;99.90
15115;DHT22;7658;51.456;7.622;2023-03-23T02:37:14;10.40;99.90
15115;DHT22;7658;51.456;7.622;2023-03-23T02:39:49;10.40;99.90
15115;DHT22;7658;51.456;7.622;2023-03-23T02:42:26;10.50;99.90
15115;DHT22;7658;51.456;7.622;2023-03-23T02:44:54;10.40;99.90
15115;DHT22;7658;51.456;7.622;2023-03-23T02:47:24;10.40;99.90
15115;DHT22;7658;51.456;7.622;2023-03-23T02:49:53;10.40;99.90
15115;DHT22;7658;51.456;7.622;2023-03-23T02:52:31;10.40;99.90
15115;DHT22;7658;51.456;7.622;2023-03-23T02:54:58;10.50;99.90
15115;DHT22;7658;51.456;7.622;2023-03-23T02:57:25;10.40;99.90
15115;DHT22;7658;51.456;7.622;2023-03-23T02:59:53;10.40;99.90
15115;DHT22;7658;51.456;7.622;2023-03-23T03:02:29;10.40;99.90
15115;DHT22;7658;51.456;7.622;2023-03-23T03:05:10;10.50;99.90
15115;DHT22;7658;51.456;7.622;2023-03-23T03:10:25;10.50;99.90
15115;DHT22;7658;51.456;7.622;2023-03-23T03:12:55;10.60;99.90
15115;DHT22;7658;51.456;7.622;2023-03-23T03:15:37;10.60;99.90
15115;DHT22;7658;51.456;7.622;2023-03-23T03:18:09;10.50;99.90
15115;DHT22;7658;51.456;7.622;2023-03-23T03:20:40;10.50;99.90
15115;DHT22;7658;51.456;7.622;2023-03-23T03:23:10;10.50;99.90
15115;DHT22;7658;51.456;7.622;2023-03-23T03:25:39;10.50;99.90
15115;DHT22;7658;51.456;7.622;2023-03-23T03:28:07;10.50;99.90
15115;DHT22;7658;51.456;7.622;2023-03-23T03:30:34;10.50;99.90
15115;DHT22;7658;51.456;7.622;2023-03-23T03:33:01;10.50;99.90
15115;DHT22;7658;51.456;7.622;2023-03-23T03:35:30;10.60;99.90
15115;DHT22;7658;51.456;7.622;2023-03-23T03:37:56;10.60;99.90
15115;DHT22;7658;51.456;7.622;2023-03-23T03:40:23;10.50;99.90
15115;DHT22;7658;51.456;7.622;2023-03-23T03:42:49;10.60;99.90
15115;DHT22;7658;51.456;7.622;2023-03-23T03:45:19;10.60;99.90
15115;DHT22;7658;51.456;7.622;2023-03-23T03:47:45;10.60;99.90
15115;DHT22;7658;51.456;7.622;2023-03-23T03:50:11;10.60;99.90
15115;DHT22;7658;51.456;7.622;2023-03-23T03:52:38;10.70;99.90
15115;DHT22;7658;51.456;7.622;2023-03-23T03:55:06;10.70;99.90
15115;DHT22;7658;51.456;7.622;2023-03-23T03:57:33;10.70;99.90
15115;DHT22;7658;51.456;7.622;2023-03-23T03:59:59;10.70;99.90
15115;DHT22;7658;51.456;7.622;2023-03-23T04:02:24;10.70;99.90
15115;DHT22;7658;51.456;7.622;2023-03-23T04:04:50;10.70;99.90
15115;DHT22;7658;51.456;7.622;2023-03-23T04:07:18;10.70;99.90
15115;DHT22;7658;51.456;7.622;2023-03-23T04:09:45;10.70;99.90
15115;DHT22;7658;51.456;7.622;2023-03-23T04:12:14;10.80;99.90
15115;DHT22;7658;51.456;7.622;2023-03-23T04:14:41;10.80;99.90
15115;DHT22;7658;51.456;7.622;2023-03-23T04:17:07;10.90;99.90
15115;DHT22;7658;51.456;7.622;2023-03-23T04:19:35;10.90;99.90
15115;DHT22;7658;51.456;7.622;2023-03-23T04:22:02;10.90;99.90
15115;DHT22;7658;51.456;7.622;2023-03-23T04:24:28;10.90;99.90
15115;DHT22;7658;51.456;7.622;2023-03-23T04:26:57;10.90;99.90
15115;DHT22;7658;51.456;7.622;2023-03-23T04:29:25;11.00;99.90
15115;DHT22;7658;51.456;7.622;2023-03-23T04:31:51;11.00;99.90
15115;DHT22;7658;51.456;7.622;2023-03-23T04:34:18;11.00;99.90
15115;DHT22;7658;51.456;7.622;2023-03-23T04:36:44;11.00;99.90
15115;DHT22;7658;51.456;7.622;2023-03-23T04:39:12;11.00;99.90
15115;DHT22;7658;51.456;7.622;2023-03-23T04:41:39;11.10;99.90
15115;DHT22;7658;51.456;7.622;2023-03-23T04:44:06;11.10;99.90
15115;DHT22;7658;51.456;7.622;2023-03-23T04:46:32;11.10;99.90
15115;DHT22;7658;51.456;7.622;2023-03-23T04:49:02;11.00;99.90
15115;DHT22;7658;51.456;7.622;2023-03-23T04:51:28;11.10;99.90
15115;DHT22;7658;51.456;7.622;2023-03-23T04:53:54;11.10;99.90
15115;DHT22;7658;51.456;7.622;2023-03-23T04:56:22;11.10;99.90
15115;DHT22;7658;51.456;7.622;2023-03-23T04:58:48;11.10;99.90
15115;DHT22;7658;51.456;7.622;2023-03-23T05:01:15;11.20;99.90
15115;DHT22;7658;51.456;7.622;2023-03-23T05:03:43;11.10;99.90
15115;DHT22;7658;51.456;7.622;2023-03-23T05:06:10;11.10;99.90
15115;DHT22;7658;51.456;7.622;2023-03-23T05:08:36;11.10;99.90
15115;DHT22;7658;51.456;7.622;2023-03-23T05:11:06;11.10;99.90
15115;DHT22;7658;51.456;7.622;2023-03-23T05:13:32;11.10;99.90
15115;DHT22;7658;51.456;7.622;2023-03-23T05:15:58;11.10;99.90
15115;DHT22;7658;51.456;7.622;2023-03-23T05:18:28;11.10;99.90
15115;DHT22;7658;51.456;7.622;2023-03-23T05:20:54;11.20;99.90
15115;DHT22;7658;51.456;7.622;2023-03-23T05:23:20;11.20;99.90
15115;DHT22;7658;51.456;7.622;2023-03-23T05:25:56;11.20;99.90
15115;DHT22;7658;51.456;7.622;2023-03-23T05:28:22;11.20;99.90
15115;DHT22;7658;51.456;7.622;2023-03-23T05:30:48;11.20;99.90
15115;DHT22;7658;51.456;7.622;2023-03-23T05:33:14;11.20;99.90
15115;DHT22;7658;51.456;7.622;2023-03-23T05:35:40;11.20;99.90
15115;DHT22;7658;51.456;7.622;2023-03-23T05:38:06;11.20;99.90
15115;DHT22;7658;51.456;7.622;2023-03-23T05:40:31;11.20;99.90
15115;DHT22;7658;51.456;7.622;2023-03-23T05:42:57;11.20;99.90
15115;DHT22;7658;51.456;7.622;2023-03-23T05:45:24;11.30;99.90
15115;DHT22;7658;51.456;7.622;2023-03-23T05:47:51;11.30;99.90
15115;DHT22;7658;51.456;7.622;2023-03-23T05:50:17;11.30;99.90
15115;DHT22;7658;51.456;7.622;2023-03-23T05:52:44;11.30;99.90
15115;DHT22;7658;51.456;7.622;2023-03-23T05:55:10;11.30;99.90
15115;DHT22;7658;51.456;7.622;2023-03-23T05:57:36;11.30;99.90
15115;DHT22;7658;51.456;7.622;2023-03-23T06:00:04;11.30;99.90
15115;DHT22;7658;51.456;7.622;2023-03-23T06:02:40;11.40;99.90
15115;DHT22;7658;51.456;7.622;2023-03-23T06:05:10;11.40;99.90
15115;DHT22;7658;51.456;7.622;2023-03-23T06:07:36;11.40;99.90
15115;DHT22;7658;51.456;7.622;2023-03-23T06:10:04;11.40;99.90
15115;DHT22;7658;51.456;7.622;2023-03-23T06:12:32;11.40;99.90
15115;DHT22;7658;51.456;7.622;2023-03-23T06:14:58;11.40;99.90
15115;DHT22;7658;51.456;7.622;2023-03-23T06:17:24;11.30;99.90
15115;DHT22;7658;51.456;7.622;2023-03-23T06:19:50;11.40;99.90
15115;DHT22;7658;51.456;7.622;2023-03-23T06:22:17;11.40;99.90
15115;DHT22;7658;51.456;7.622;2023-03-23T06:24:43;11.40;99.90
15115;DHT22;7658;51.456;7.622;2023-03-23T06:27:09;11.40;99.90
15115;DHT22;7658;51.456;7.622;2023-03-23T06:29:36;11.40;99.90
15115;DHT22;7658;51.456;7.622;2023-03-23T06:32:03;11.40;99.90
15115;DHT22;7658;51.456;7.622;2023-03-23T06:34:30;11.50;99.90
15115;DHT22;7658;51.456;7.622;2023-03-23T06:36:57;11.50;99.90
15115;DHT22;7658;51.456;7.622;2023-03-23T06:39:23;11.50;99.90
15115;DHT22;7658;51.456;7.622;2023-03-23T06:41:49;11.60;99.90
15115;DHT22;7658;51.456;7.622;2023-03-23T06:44:16;11.60;99.90
15115;DHT22;7658;51.456;7.622;2023-03-23T06:46:42;11.60;99.90
15115;DHT22;7658;51.456;7.622;2023-03-23T06:49:08;11.60;99.90
15115;DHT22;7658;51.456;7.622;2023-03-23T06:51:34;11.60;99.90
15115;DHT22;7658;51.456;7.622;2023-03-23T06:54:00;11.60;99.90
15115;DHT22;7658;51.456;7.622;2023-03-23T06:56:26;11.70;99.90
15115;DHT22;7658;51.456;7.622;2023-03-23T06:58:53;11.70;99.90
15115;DHT22;7658;51.456;7.622;2023-03-23T07:01:19;11.70;99.90
15115;DHT22;7658;51.456;7.622;2023-03-23T07:03:45;11.80;99.90
15115;DHT22;7658;51.456;7.622;2023-03-23T07:06:11;11.80;99.90
15115;DHT22;7658;51.456;7.622;2023-03-23T07:08:37;11.90;99.90
15115;DHT22;7658;51.456;7.622;2023-03-23T07:11:03;11.90;99.90
15115;DHT22;7658;51.456;7.622;2023-03-23T07:13:29;12.00;99.90
15115;DHT22;7658;51.456;7.622;2023-03-23T07:15:55;12.00;99.90
15115;DHT22;7658;51.456;7.622;2023-03-23T07:18:21;12.00;99.90
15115;DHT22;7658;51.456;7.622;2023-03-23T07:20:48;12.00;99.90
15115;DHT22;7658;51.456;7.622;2023-03-23T07:23:14;12.00;99.90
15115;DHT22;7658;51.456;7.622;2023-03-23T07:25:40;12.00;99.90
15115;DHT22;7658;51.456;7.622;2023-03-23T07:28:06;12.00;99.90
15115;DHT22;7658;51.456;7.622;2023-03-23T07:30:32;12.00;99.90
15115;DHT22;7658;51.456;7.622;2023-03-23T07:32:58;12.00;99.90
15115;DHT22;7658;51.456;7.622;2023-03-23T07:35:24;12.00;99.90
15115;DHT22;7658;51.456;7.622;2023-03-23T07:37:50;12.00;99.90
15115;DHT22;7658;51.456;7.622;2023-03-23T07:40:18;12.10;99.90
15115;DHT22;7658;51.456;7.622;2023-03-23T07:42:46;12.10;99.90
15115;DHT22;7658;51.456;7.622;2023-03-23T07:45:15;12.10;99.90
15115;DHT22;7658;51.456;7.622;2023-03-23T07:47:41;12.20;99.90
15115;DHT22;7658;51.456;7.622;2023-03-23T07:50:08;12.20;99.90
15115;DHT22;7658;51.456;7.622;2023-03-23T07:52:35;12.20;99.90
15115;DHT22;7658;51.456;7.622;2023-03-23T07:55:02;12.30;99.90
15115;DHT22;7658;51.456;7.622;2023-03-23T07:57:29;12.30;99.90
15115;DHT22;7658;51.456;7.622;2023-03-23T07:59:55;12.30;99.90
15115;DHT22;7658;51.456;7.622;2023-03-23T08:02:22;12.30;99.90
15115;DHT22;7658;51.456;7.622;2023-03-23T08:04:49;12.40;99.90
15115;DHT22;7658;51.456;7.622;2023-03-23T08:07:17;12.40;99.90
15115;DHT22;7658;51.456;7.622;2023-03-23T08:09:44;12.40;99.90
15115;DHT22;7658;51.456;7.622;2023-03-23T08:12:10;12.40;99.90
15115;DHT22;7658;51.456;7.622;2023-03-23T08:14:36;12.40;99.90
15115;DHT22;7658;51.456;7.622;2023-03-23T08:17:02;12.40;99.90
15115;DHT22;7658;51.456;7.622;2023-03-23T08:19:28;12.40;99.90
15115;DHT22;7658;51.456;7.622;2023-03-23T08:21:54;12.40;99.90
15115;DHT22;7658;51.456;7.622;2023-03-23T08:24:19;12.40;99.90
15115;DHT22;7658;51.456;7.622;2023-03-23T08:26:45;12.40;99.90
15115;DHT22;7658;51.456;7.622;2023-03-23T08:29:11;12.40;99.90
15115;DHT22;7658;51.456;7.622;2023-03-23T08:31:39;12.40;99.90
15115;DHT22;7658;51.456;7.622;2023-03-23T08:34:05;12.50;99.90
15115;DHT22;7658;51.456;7.622;2023-03-23T08:36:35;12.50;99.90
15115;DHT22;7658;51.456;7.622;2023-03-23T08:39:03;12.50;99.90
15115;DHT22;7658;51.456;7.622;2023-03-23T08:41:31;12.50;99.90
15115;DHT22;7658;51.456;7.622;2023-03-23T08:43:57;12.50;99.90
15115;DHT22;7658;51.456;7.622;2023-03-23T08:46:23;12.60;99.90
15115;DHT22;7658;51.456;7.622;2023-03-23T08:48:49;12.60;99.90
15115;DHT22;7658;51.456;7.622;2023-03-23T08:51:15;12.60;99.90
15115;DHT22;7658;51.456;7.622;2023-03-23T08:53:40;12.70;99.90
15115;DHT22;7658;51.456;7.622;2023-03-23T08:56:09;12.80;99.90
15115;DHT22;7658;51.456;7.622;2023-03-23T08:58:36;12.80;99.90
15115;DHT22;7658;51.456;7.622;2023-03-23T09:01:04;12.80;99.90
15115;DHT22;7658;51.456;7.622;2023-03-23T09:03:32;12.90;99.90
15115;DHT22;7658;51.456;7.622;2023-03-23T09:06:00;12.90;99.90
15115;DHT22;7658;51.456;7.622;2023-03-23T09:08:28;12.90;99.90
15115;DHT22;7658;51.456;7.622;2023-03-23T09:11:05;12.90;99.90
15115;DHT22;7658;51.456;7.622;2023-03-23T09:13:33;13.00;99.90
15115;DHT22;7658;51.456;7.622;2023-03-23T09:15:59;13.00;99.90
15115;DHT22;7658;51.456;7.622;2023-03-23T09:18:25;13.10;99.90
15115;DHT22;7658;51.456;7.622;2023-03-23T09:20:52;13.10;99.90
15115;DHT22;7658;51.456;7.622;2023-03-23T09:23:18;13.10;99.90
15115;DHT22;7658;51.456;7.622;2023-03-23T09:25:44;13.20;99.90
15115;DHT22;7658;51.456;7.622;2023-03-23T09:28:10;13.10;99.90
15115;DHT22;7658;51.456;7.622;2023-03-23T09:30:37;13.10;99.90
15115;DHT22;7658;51.456;7.622;2023-03-23T09:33:04;13.00;99.90
15115;DHT22;7658;51.456;7.622;2023-03-23T09:35:32;13.00;99.90
15115;DHT22;7658;51.456;7.622;2023-03-23T09:37:59;13.00;99.90
15115;DHT22;7658;51.456;7.622;2023-03-23T09:40:58;12.90;99.90
15115;DHT22;7658;51.456;7.622;2023-03-23T09:46:33;12.80;99.90
15115;DHT22;7658;51.456;7.622;2023-03-23T09:49:21;12.90;99.90
15115;DHT22;7658;51.456;7.622;2023-03-23T09:51:55;12.90;99.90
15115;DHT22;7658;51.456;7.622;2023-03-23T09:54:33;12.90;99.90
15115;DHT22;7658;51.456;7.622;2023-03-23T09:57:00;12.90;99.90
15115;DHT22;7658;51.456;7.622;2023-03-23T10:02:18;13.10;99.90
15115;DHT22;7658;51.456;7.622;2023-03-23T10:04:50;13.10;99.90
15115;DHT22;7658;51.456;7.622;2023-03-23T10:07:26;13.10;99.90
15115;DHT22;7658;51.456;7.622;2023-03-23T10:09:57;13.10;99.90
15115;DHT22;7658;51.456;7.622;2023-03-23T10:15:29;13.10;99.90
15115;DHT22;7658;51.456;7.622;2023-03-23T10:18:09;13.30;99.90
15115;DHT22;7658;51.456;7.622;2023-03-23T10:20:50;13.40;99.90
15115;DHT22;7658;51.456;7.622;2023-03-23T10:26:04;13.40;99.90
15115;DHT22;7658;51.456;7.622;2023-03-23T10:28:44;13.50;99.90
15115;DHT22;7658;51.456;7.622;2023-03-23T10:31:29;13.50;99.90
15115;DHT22;7658;51.456;7.622;2023-03-23T10:34:01;13.50;99.90
15115;DHT22;7658;51.456;7.622;2023-03-23T10:36:50;13.50;99.90
15115;DHT22;7658;51.456;7.622;2023-03-23T10:39:20;13.60;99.90
15115;DHT22;7658;51.456;7.622;2023-03-23T10:41:48;13.60;99.90
15115;DHT22;7658;51.456;7.622;2023-03-23T10:44:17;13.60;99.90
15115;DHT22;7658;51.456;7.622;2023-03-23T10:46:56;13.60;99.90
15115;DHT22;7658;51.456;7.622;2023-03-23T10:49:26;13.50;99.90
15115;DHT22;7658;51.456;7.622;2023-03-23T10:54:46;13.30;99.90
15115;DHT22;7658;51.456;7.622;2023-03-23T10:57:40;13.20;99.90
15115;DHT22;7658;51.456;7.622;2023-03-23T11:03:05;12.60;99.90
15115;DHT22;7658;51.456;7.622;2023-03-23T11:05:40;12.30;99.90
15115;DHT22;7658;51.456;7.622;2023-03-23T11:08:15;12.10;99.90
15115;DHT22;7658;51.456;7.622;2023-03-23T11:10:49;12.00;99.90
15115;DHT22;7658;51.456;7.622;2023-03-23T11:13:17;12.00;99.90
15115;DHT22;7658;51.456;7.622;2023-03-23T11:15:46;11.80;99.90
15115;DHT22;7658;51.456;7.622;2023-03-23T11:18:35;11.60;99.90
15115;DHT22;7658;51.456;7.622;2023-03-23T11:21:02;11.40;99.90
15115;DHT22;7658;51.456;7.622;2023-03-23T11:23:32;11.20;99.90
15115;DHT22;7658;51.456;7.622;2023-03-23T11:31:22;10.80;99.90
15115;DHT22;7658;51.456;7.622;2023-03-23T11:33:55;10.80;99.90
15115;DHT22;7658;51.456;7.622;2023-03-23T11:36:36;10.60;99.90
15115;DHT22;7658;51.456;7.622;2023-03-23T11:41:48;10.50;99.90
15115;DHT22;7658;51.456;7.622;2023-03-23T11:44:14;10.30;99.90
15115;DHT22;7658;51.456;7.622;2023-03-23T11:47:27;10.40;99.90
15115;DHT22;7658;51.456;7.622;2023-03-23T11:55:28;10.20;99.90
15115;DHT22;7658;51.456;7.622;2023-03-23T11:57:58;10.20;99.90
15115;DHT22;7658;51.456;7.622;2023-03-23T12:00:26;10.10;99.90
15115;DHT22;7658;51.456;7.622;2023-03-23T12:03:02;10.00;99.90
15115;DHT22;7658;51.456;7.622;2023-03-23T12:05:56;9.90;99.90
15115;DHT22;7658;51.456;7.622;2023-03-23T12:11:03;9.90;99.90
15115;DHT22;7658;51.456;7.622;2023-03-23T12:16:52;9.80;99.90
15115;DHT22;7658;51.456;7.622;2023-03-23T12:22:24;9.70;99.90
15115;DHT22;7658;51.456;7.622;2023-03-23T12:36:58;9.60;99.90
15115;DHT22;7658;51.456;7.622;2023-03-23T12:42:33;9.70;99.90
15115;DHT22;7658;51.456;7.622;2023-03-23T12:45:22;9.80;99.90
15115;DHT22;7658;51.456;7.622;2023-03-23T12:56:46;10.30;99.90
15115;DHT22;7658;51.456;7.622;2023-03-23T13:02:05;10.30;99.90
15115;DHT22;7658;51.456;7.622;2023-03-23T13:04:42;10.20;99.90
15115;DHT22;7658;51.456;7.622;2023-03-23T13:07:28;10.00;99.90
15115;DHT22;7658;51.456;7.622;2023-03-23T13:10:12;10.10;99.90
15115;DHT22;7658;51.456;7.622;2023-03-23T13:12:41;10.10;99.90
15115;DHT22;7658;51.456;7.622;2023-03-23T13:23:46;10.10;99.90
15115;DHT22;7658;51.456;7.622;2023-03-23T13:26:18;10.20;99.90
15115;DHT22;7658;51.456;7.622;2023-03-23T13:29:15;10.20;99.90
15115;DHT22;7658;51.456;7.622;2023-03-23T13:31:45;10.20;99.90
15115;DHT22;7658;51.456;7.622;2023-03-23T13:34:20;10.20;99.90
15115;DHT22;7658;51.456;7.622;2023-03-23T13:37:00;10.20;99.90
15115;DHT22;7658;51.456;7.622;2023-03-23T13:39:49;10.30;99.90
15115;DHT22;7658;51.456;7.622;2023-03-23T13:45:18;10.60;99.90
15115;DHT22;7658;51.456;7.622;2023-03-23T13:47:46;10.70;99.90
15115;DHT22;7658;51.456;7.622;2023-03-23T14:03:13;10.90;99.90
15115;DHT22;7658;51.456;7.622;2023-03-23T14:09:03;10.80;99.90
15115;DHT22;7658;51.456;7.622;2023-03-23T14:11:22;10.70;99.90
15115;DHT22;7658;51.456;7.622;2023-03-23T14:14:04;10.70;99.90
15115;DHT22;7658;51.456;7.622;2023-03-23T14:16:42;10.70;99.90
15115;DHT22;7658;51.456;7.622;2023-03-23T14:19:27;10.70;99.90
15115;DHT22;7658;51.456;7.622;2023-03-23T14:21:59;10.80;99.90
15115;DHT22;7658;51.456;7.622;2023-03-23T14:24:28;10.90;99.90
15115;DHT22;7658;51.456;7.622;2023-03-23T14:27:17;10.90;99.90
15115;DHT22;7658;51.456;7.622;2023-03-23T14:29:43;10.80;99.90
15115;DHT22;7658;51.456;7.622;2023-03-23T14:32:15;10.80;99.90
15115;DHT22;7658;51.456;7.622;2023-03-23T14:34:43;10.80;99.90
15115;DHT22;7658;51.456;7.622;2023-03-23T14:37:15;10.90;99.90
15115;DHT22;7658;51.456;7.622;2023-03-23T14:39:52;10.80;99.90
15115;DHT22;7658;51.456;7.622;2023-03-23T14:42:26;10.80;99.90
15115;DHT22;7658;51.456;7.622;2023-03-23T14:44:53;10.90;99.90
15115;DHT22;7658;51.456;7.622;2023-03-23T14:47:34;10.90;99.90
15115;DHT22;7658;51.456;7.622;2023-03-23T14:50:03;10.90;99.90
15115;DHT22;7658;51.456;7.622;2023-03-23T14:52:38;10.90;99.90
15115;DHT22;7658;51.456;7.622;2023-03-23T14:55:22;10.90;99.90
15115;DHT22;7658;51.456;7.622;2023-03-23T14:57:49;11.00;99.90
15115;DHT22;7658;51.456;7.622;2023-03-23T15:00:23;11.10;99.90
15115;DHT22;7658;51.456;7.622;2023-03-23T15:02:56;11.30;99.90
15115;DHT22;7658;51.456;7.622;2023-03-23T15:05:32;11.60;99.90
15115;DHT22;7658;51.456;7.622;2023-03-23T15:08:07;11.60;99.90
15115;DHT22;7658;51.456;7.622;2023-03-23T15:10:36;11.60;99.90
15115;DHT22;7658;51.456;7.622;2023-03-23T15:13:02;11.80;99.90
15115;DHT22;7658;51.456;7.622;2023-03-23T15:15:34;11.80;99.90
15115;DHT22;7658;51.456;7.622;2023-03-23T15:18:02;11.90;99.90
15115;DHT22;7658;51.456;7.622;2023-03-23T15:20:46;12.00;99.90
15115;DHT22;7658;51.456;7.622;2023-03-23T15:23:27;12.00;99.90
15115;DHT22;7658;51.456;7.622;2023-03-23T15:25:55;12.00;99.90
15115;DHT22;7658;51.456;7.622;2023-03-23T15:28:28;12.00;99.90
15115;DHT22;7658;51.456;7.622;2023-03-23T15:31:03;12.00;99.90
15115;DHT22;7658;51.456;7.622;2023-03-23T15:33:39;12.00;99.90
15115;DHT22;7658;51.456;7.622;2023-03-23T15:36:16;11.90;99.90
15115;DHT22;7658;51.456;7.622;2023-03-23T15:38:46;11.90;99.90
15115;DHT22;7658;51.456;7.622;2023-03-23T15:41:30;12.00;99.90
15115;DHT22;7658;51.456;7.622;2023-03-23T15:44:18;12.10;99.90
15115;DHT22;7658;51.456;7.622;2023-03-23T15:46:51;12.10;99.90
15115;DHT22;7658;51.456;7.622;2023-03-23T15:49:17;12.10;99.90
15115;DHT22;7658;51.456;7.622;2023-03-23T15:51:43;12.00;99.90
15115;DHT22;7658;51.456;7.622;2023-03-23T15:54:13;12.00;99.90
15115;DHT22;7658;51.456;7.622;2023-03-23T15:56:40;12.10;99.90
15115;DHT22;7658;51.456;7.622;2023-03-23T15:59:08;12.20;99.90
15115;DHT22;7658;51.456;7.622;2023-03-23T16:01:33;12.30;99.90
15115;DHT22;7658;51.456;7.622;2023-03-23T16:04:15;12.20;99.90
15115;DHT22;7658;51.456;7.622;2023-03-23T16:06:41;12.20;99.90
15115;DHT22;7658;51.456;7.622;2023-03-23T16:09:11;12.20;99.90
15115;DHT22;7658;51.456;7.622;2023-03-23T16:11:37;12.20;99.90
15115;DHT22;7658;51.456;7.622;2023-03-23T16:14:03;12.10;99.90
15115;DHT22;7658;51.456;7.622;2023-03-23T16:16:47;12.10;99.90
15115;DHT22;7658;51.456;7.622;2023-03-23T16:19:14;12.20;99.90
15115;DHT22;7658;51.456;7.622;2023-03-23T16:21:41;12.20;99.90
15115;DHT22;7658;51.456;7.622;2023-03-23T16:24:08;12.20;99.90
15115;DHT22;7658;51.456;7.622;2023-03-23T16:26:35;12.10;99.90
15115;DHT22;7658;51.456;7.622;2023-03-23T16:29:00;12.10;99.90
15115;DHT22;7658;51.456;7.622;2023-03-23T16:31:27;12.10;99.90
15115;DHT22;7658;51.456;7.622;2023-03-23T16:33:54;12.10;99.90
15115;DHT22;7658;51.456;7.622;2023-03-23T16:36:20;12.10;99.90
15115;DHT22;7658;51.456;7.622;2023-03-23T16:38:45;12.10;99.90
15115;DHT22;7658;51.456;7.622;2023-03-23T16:41:11;12.10;99.90
15115;DHT22;7658;51.456;7.622;2023-03-23T16:43:37;12.10;99.90
15115;DHT22;7658;51.456;7.622;2023-03-23T16:46:03;12.10;99.90
15115;DHT22;7658;51.456;7.622;2023-03-23T16:48:29;12.10;99.90
15115;DHT22;7658;51.456;7.622;2023-03-23T16:50:54;12.10;99.90
15115;DHT22;7658;51.456;7.622;2023-03-23T16:53:21;12.10;99.90
15115;DHT22;7658;51.456;7.622;2023-03-23T16:55:47;12.10;99.90
15115;DHT22;7658;51.456;7.622;2023-03-23T16:58:15;12.00;99.90
15115;DHT22;7658;51.456;7.622;2023-03-23T17:00:43;12.00;99.90
15115;DHT22;7658;51.456;7.622;2023-03-23T17:03:09;12.00;99.90
15115;DHT22;7658;51.456;7.622;2023-03-23T17:05:36;12.00;99.90
15115;DHT22;7658;51.456;7.622;2023-03-23T17:08:02;11.90;99.90
15115;DHT22;7658;51.456;7.622;2023-03-23T17:10:30;11.90;99.90
15115;DHT22;7658;51.456;7.622;2023-03-23T17:12:57;11.90;99.90
15115;DHT22;7658;51.456;7.622;2023-03-23T17:15:22;11.90;99.90
15115;DHT22;7658;51.456;7.622;2023-03-23T17:17:50;11.90;99.90
15115;DHT22;7658;51.456;7.622;2023-03-23T17:20:17;11.90;99.90
15115;DHT22;7658;51.456;7.622;2023-03-23T17:22:42;11.90;99.90
15115;DHT22;7658;51.456;7.622;2023-03-23T17:25:09;11.80;99.90
15115;DHT22;7658;51.456;7.622;2023-03-23T17:27:35;11.80;99.90
15115;DHT22;7658;51.456;7.622;2023-03-23T17:30:03;11.80;99.90
15115;DHT22;7658;51.456;7.622;2023-03-23T17:32:29;11.80;99.90
15115;DHT22;7658;51.456;7.622;2023-03-23T17:34:55;11.80;99.90
15115;DHT22;7658;51.456;7.622;2023-03-23T17:37:21;11.80;99.90
15115;DHT22;7658;51.456;7.622;2023-03-23T17:39:47;11.70;99.90
15115;DHT22;7658;51.456;7.622;2023-03-23T17:42:13;11.70;99.90
15115;DHT22;7658;51.456;7.622;2023-03-23T17:44:38;11.70;99.90
15115;DHT22;7658;51.456;7.622;2023-03-23T17:47:05;11.60;99.90
15115;DHT22;7658;51.456;7.622;2023-03-23T17:49:33;11.60;99.90
15115;DHT22;7658;51.456;7.622;2023-03-23T17:51:59;11.60;99.90
15115;DHT22;7658;51.456;7.622;2023-03-23T17:54:25;11.50;99.90
15115;DHT22;7658;51.456;7.622;2023-03-23T17:56:52;11.50;99.90
15115;DHT22;7658;51.456;7.622;2023-03-23T17:59:18;11.50;99.90